createdAt,value
2019-01-16T00:00:59.546Z,95686.19
2019-01-16T00:03:47.689Z,95679.52
2019-01-16T00:06:35.814Z,95671.39
2019-01-16T00:09:44.423Z,95676.41
2019-01-16T00:12:32.831Z,95680.13
2019-01-16T00:15:21.002Z,95688.69
2019-01-16T00:18:28.251Z,95687.02
2019-01-16T00:21:16.359Z,95685.77
2019-01-16T00:24:04.501Z,95688.95
2019-01-16T00:26:52.633Z,95685.55
2019-01-16T00:29:33.550Z,95683.00
2019-01-16T00:32:21.653Z,95673.02
2019-01-16T00:35:10.156Z,95677.55
2019-01-16T00:37:58.265Z,95669.41
2019-01-16T00:40:46.673Z,95665.19
2019-01-16T00:43:34.813Z,95673.98
2019-01-16T00:46:23.194Z,95666.30
2019-01-16T00:49:11.322Z,95661.82
2019-01-16T00:51:59.436Z,95674.22
2019-01-16T00:54:47.772Z,95672.87
2019-01-16T00:57:36.153Z,95668.85
2019-01-16T01:00:46.128Z,95665.53
2019-01-16T01:03:34.243Z,95654.20
2019-01-16T01:06:22.377Z,95659.87
2019-01-16T01:09:10.611Z,95657.25
2019-01-16T01:11:59.004Z,95660.97
2019-01-16T01:14:47.141Z,95655.92
2019-01-16T01:17:35.247Z,95662.43
2019-01-16T01:20:24.236Z,95663.08
2019-01-16T01:23:00.995Z,95659.31
2019-01-16T01:25:49.138Z,95661.86
2019-01-16T01:28:26.338Z,95656.19
2019-01-16T01:31:14.516Z,95659.27
2019-01-16T01:34:02.623Z,95659.05
2019-01-16T01:36:50.757Z,95662.02
2019-01-16T01:39:38.864Z,95665.27
2019-01-16T01:42:19.810Z,95656.17
2019-01-16T01:45:07.942Z,95655.92
2019-01-16T01:47:56.051Z,95653.73
2019-01-16T01:50:44.469Z,95646.83
2019-01-16T01:53:32.573Z,95641.71
2019-01-16T01:56:20.702Z,95638.12
2019-01-16T01:59:08.809Z,95630.71
2019-01-16T02:01:56.940Z,95621.94
2019-01-16T02:04:45.043Z,95618.94
2019-01-16T02:07:33.178Z,95625.37
2019-01-16T02:10:12.609Z,95630.38
2019-01-16T02:13:00.739Z,95633.05
2019-01-16T02:15:48.874Z,95627.50
2019-01-16T02:18:36.991Z,95621.91
2019-01-16T02:21:26.861Z,95627.76
2019-01-16T02:24:14.955Z,95624.47
2019-01-16T02:27:03.116Z,95621.33
2019-01-16T02:29:51.234Z,95621.59
2019-01-16T02:32:39.369Z,95617.23
2019-01-16T02:35:21.154Z,95615.34
2019-01-16T02:37:57.652Z,95605.98
2019-01-16T02:40:45.795Z,95606.31
2019-01-16T02:43:33.912Z,95597.06
2019-01-16T02:46:22.052Z,95586.44
2019-01-16T02:49:10.175Z,95591.80
2019-01-16T02:51:58.298Z,95584.00
2019-01-16T02:54:46.406Z,95586.23
2019-01-16T02:57:34.567Z,95581.96
2019-01-16T03:03:31.234Z,95574.41
2019-01-16T03:06:10.020Z,95572.61
2019-01-16T03:08:58.124Z,95565.22
2019-01-16T03:11:46.536Z,95561.76
2019-01-16T03:14:34.647Z,95564.95
2019-01-16T03:17:22.779Z,95564.06
2019-01-16T03:20:11.163Z,95561.99
2019-01-16T03:22:59.299Z,95554.31
2019-01-16T03:25:47.420Z,95558.16
2019-01-16T03:28:35.585Z,95553.94
2019-01-16T03:31:44.184Z,95550.77
2019-01-16T03:34:32.284Z,95548.78
2019-01-16T03:37:13.103Z,95548.27
2019-01-16T03:40:01.233Z,95547.75
2019-01-16T03:42:49.370Z,95544.59
2019-01-16T03:45:37.474Z,95543.83
2019-01-16T03:48:17.681Z,95541.28
2019-01-16T03:51:05.831Z,95539.06
2019-01-16T03:53:54.440Z,95539.81
2019-01-16T03:56:42.580Z,95536.16
2019-01-16T03:59:30.741Z,95524.73
2019-01-16T04:02:26.280Z,95525.05
2019-01-16T04:05:14.385Z,95529.59
2019-01-16T04:08:02.518Z,95525.49
2019-01-16T04:10:50.991Z,95528.38
2019-01-16T04:13:39.406Z,95520.49
2019-01-16T04:16:27.522Z,95524.23
2019-01-16T04:19:21.620Z,95524.33
2019-01-16T04:22:05.820Z,95517.94
2019-01-16T04:24:53.923Z,95524.46
2019-01-16T04:27:30.637Z,95522.05
2019-01-16T04:30:18.737Z,95528.67
2019-01-16T04:33:06.869Z,95524.47
2019-01-16T04:35:54.983Z,95523.37
2019-01-16T04:38:43.123Z,95521.84
2019-01-16T04:41:31.233Z,95525.88
2019-01-16T04:44:19.376Z,95522.67
2019-01-16T04:47:07.485Z,95524.21
2019-01-16T04:49:55.623Z,95523.91
2019-01-16T04:52:38.084Z,95517.80
2019-01-16T04:55:46.665Z,95511.41
2019-01-16T04:58:34.797Z,95507.39
2019-01-16T05:01:22.909Z,95507.32
2019-01-16T05:04:11.040Z,95506.19
2019-01-16T05:06:59.149Z,95505.66
2019-01-16T05:09:47.275Z,95501.73
2019-01-16T05:12:29.443Z,95495.13
2019-01-16T05:15:07.310Z,95495.64
2019-01-16T05:17:55.480Z,95497.95
2019-01-16T05:20:43.593Z,95499.97
2019-01-16T05:23:29.686Z,95495.87
2019-01-16T05:26:18.083Z,95491.67
2019-01-16T05:31:59.739Z,95489.04
2019-01-16T05:34:47.875Z,95491.53
2019-01-16T05:37:36.032Z,95478.39
2019-01-16T05:40:46.049Z,95481.08
2019-01-16T05:43:34.479Z,95481.08
2019-01-16T05:46:22.863Z,95485.98
2019-01-16T05:49:10.992Z,95486.23
2019-01-16T05:51:59.108Z,95480.87
2019-01-16T05:54:47.282Z,95480.41
2019-01-16T05:57:35.393Z,95478.58
2019-01-16T06:00:44.011Z,95482.97
2019-01-16T06:03:32.204Z,95474.92
2019-01-16T06:06:20.390Z,95479.28
2019-01-16T06:09:08.512Z,95471.09
2019-01-16T06:11:56.793Z,95467.58
2019-01-16T06:14:44.962Z,95470.01
2019-01-16T06:17:33.359Z,95462.58
2019-01-16T06:20:21.498Z,95459.95
2019-01-16T06:23:09.627Z,95459.52
2019-01-16T06:25:57.800Z,95457.72
2019-01-16T06:28:45.979Z,95457.59
2019-01-16T06:31:34.086Z,95458.26
2019-01-16T06:34:22.216Z,95457.08
2019-01-16T06:37:10.525Z,95458.19
2019-01-16T06:39:58.653Z,95457.30
2019-01-16T06:42:46.768Z,95452.67
2019-01-16T06:45:34.900Z,95457.23
2019-01-16T06:48:23.108Z,95452.44
2019-01-16T06:51:06.919Z,95458.52
2019-01-16T06:53:55.033Z,95456.64
2019-01-16T06:56:43.562Z,95457.29
2019-01-16T06:59:32.002Z,95452.42
2019-01-16T07:02:20.108Z,95440.80
2019-01-16T07:05:08.348Z,95447.38
2019-01-16T07:07:56.455Z,95447.94
2019-01-16T07:10:44.593Z,95454.59
2019-01-16T07:13:32.707Z,95448.45
2019-01-16T07:16:20.946Z,95459.41
2019-01-16T07:19:09.063Z,95455.42
2019-01-16T07:21:57.203Z,95447.44
2019-01-16T07:24:45.302Z,95449.36
2019-01-16T07:27:24.992Z,95453.52
2019-01-16T07:30:13.114Z,95451.64
2019-01-16T07:33:01.251Z,95454.28
2019-01-16T07:35:49.388Z,95449.41
2019-01-16T07:38:37.565Z,95435.14
2019-01-16T07:41:28.567Z,95443.41
2019-01-16T07:44:17.089Z,95437.84
2019-01-16T07:47:05.270Z,95431.86
2019-01-16T07:49:53.506Z,95427.58
2019-01-16T07:52:32.083Z,95426.06
2019-01-16T07:55:20.296Z,95420.70
2019-01-16T07:58:05.001Z,95434.37
2019-01-16T08:00:53.153Z,95424.18
2019-01-16T08:03:41.272Z,95417.51
2019-01-16T08:06:29.421Z,95416.88
2019-01-16T08:09:17.528Z,95406.48
2019-01-16T08:12:05.690Z,95397.66
2019-01-16T08:14:54.077Z,95405.05
2019-01-16T08:17:42.209Z,95404.64
2019-01-16T08:20:30.318Z,95408.02
2019-01-16T08:23:18.734Z,95412.80
2019-01-16T08:26:06.931Z,95402.16
2019-01-16T08:28:55.094Z,95406.50
2019-01-16T08:31:36.959Z,95413.66
2019-01-16T08:34:45.557Z,95422.63
2019-01-16T08:37:33.677Z,95422.63
2019-01-16T08:40:22.115Z,95413.05
2019-01-16T08:43:10.256Z,95415.71
2019-01-16T08:45:47.413Z,95410.28
2019-01-16T08:48:35.545Z,95393.73
2019-01-16T08:54:32.304Z,95390.51
2019-01-16T08:57:20.682Z,95389.45
2019-01-16T09:00:08.819Z,95384.92
2019-01-16T09:02:56.923Z,95394.85
2019-01-16T09:05:37.751Z,95400.89
2019-01-16T09:08:26.132Z,95396.28
2019-01-16T09:11:14.277Z,95397.94
2019-01-16T09:14:02.672Z,95394.08
2019-01-16T09:16:50.934Z,95391.13
2019-01-16T09:19:39.332Z,95386.00
2019-01-16T09:22:27.718Z,95380.42
2019-01-16T09:25:15.844Z,95371.66
2019-01-16T09:28:03.978Z,95374.49
2019-01-16T09:30:52.113Z,95383.00
2019-01-16T09:33:40.740Z,95377.09
2019-01-16T09:36:28.947Z,95374.43
2019-01-16T09:39:17.107Z,95370.55
2019-01-16T09:42:05.566Z,95361.02
2019-01-16T09:44:53.671Z,95366.45
2019-01-16T09:47:41.830Z,95364.09
2019-01-16T09:50:24.197Z,95355.34
2019-01-16T09:53:12.420Z,95344.91
2019-01-16T09:56:00.557Z,95349.44
2019-01-16T09:58:48.787Z,95338.55
2019-01-16T10:01:36.925Z,95338.22
2019-01-16T10:04:25.315Z,95329.95
2019-01-16T10:07:13.535Z,95329.53
2019-01-16T10:10:01.921Z,95322.27
2019-01-16T10:12:50.052Z,95320.72
2019-01-16T10:15:38.286Z,95312.64
2019-01-16T10:18:26.422Z,95311.64
2019-01-16T10:21:14.535Z,95306.68
2019-01-16T10:24:02.969Z,95303.38
2019-01-16T10:26:38.855Z,95302.20
2019-01-16T10:29:27.271Z,95306.81
2019-01-16T10:32:15.714Z,95302.48
2019-01-16T10:35:03.823Z,95298.16
2019-01-16T10:37:51.962Z,95280.97
2019-01-16T10:40:40.074Z,95275.75
2019-01-16T10:43:15.605Z,95268.20
2019-01-16T10:46:04.011Z,95267.47
2019-01-16T10:48:52.173Z,95265.73
2019-01-16T10:51:40.304Z,95262.78
2019-01-16T10:54:28.434Z,95255.83
2019-01-16T10:57:10.814Z,95253.80
2019-01-16T10:59:59.390Z,95252.80
2019-01-16T11:02:37.965Z,95245.14
2019-01-16T11:05:46.571Z,95234.73
2019-01-16T11:08:34.728Z,95228.90
2019-01-16T11:11:22.960Z,95232.73
2019-01-16T11:14:11.095Z,95226.44
2019-01-16T11:16:59.205Z,95216.45
2019-01-16T11:19:47.333Z,95207.78
2019-01-16T11:22:35.710Z,95211.43
2019-01-16T11:25:44.357Z,95211.65
2019-01-16T11:28:32.485Z,95207.16
2019-01-16T11:31:20.921Z,95204.24
2019-01-16T11:34:09.031Z,95199.25
2019-01-16T11:36:57.163Z,95196.98
2019-01-16T11:39:45.375Z,95194.34
2019-01-16T11:42:33.541Z,95188.36
2019-01-16T11:45:21.656Z,95183.02
2019-01-16T11:48:05.088Z,95175.14
2019-01-16T11:50:53.219Z,95171.48
2019-01-16T11:53:41.652Z,95162.98
2019-01-16T11:56:29.780Z,95156.64
2019-01-16T11:59:18.165Z,95151.56
2019-01-16T12:02:06.370Z,95143.88
2019-01-16T12:04:54.588Z,95134.85
2019-01-16T12:07:42.636Z,95130.27
2019-01-16T12:10:31.809Z,95130.20
2019-01-16T12:13:20.017Z,95134.25
2019-01-16T12:16:08.424Z,95130.24
2019-01-16T12:18:56.562Z,95130.55
2019-01-16T12:21:44.671Z,95123.25
2019-01-16T12:24:21.649Z,95119.12
2019-01-16T12:27:09.770Z,95111.58
2019-01-16T12:29:57.946Z,95109.06
2019-01-16T12:32:33.764Z,95106.48
2019-01-16T12:35:21.899Z,95105.77
2019-01-16T12:38:10.011Z,95098.73
2019-01-16T12:40:58.154Z,95096.05
2019-01-16T12:43:37.914Z,95088.50
2019-01-16T12:46:26.043Z,95081.34
2019-01-16T12:49:14.160Z,95078.88
2019-01-16T12:52:02.290Z,95071.02
2019-01-16T12:54:50.426Z,95067.41
2019-01-16T12:57:38.542Z,95062.45
2019-01-16T13:06:19.009Z,95055.88
2019-01-16T13:09:07.166Z,95055.42
2019-01-16T13:11:55.594Z,95056.91
2019-01-16T13:14:44.161Z,95057.22
2019-01-16T13:17:25.273Z,95046.91
2019-01-16T13:20:13.403Z,95049.22
2019-01-16T13:25:46.781Z,95043.66
2019-01-16T13:28:34.944Z,95034.64
2019-01-16T13:31:23.105Z,95040.04
2019-01-16T13:34:11.490Z,95030.55
2019-01-16T13:36:59.622Z,95027.94
2019-01-16T13:39:48.019Z,95020.56
2019-01-16T13:42:36.202Z,95023.19
2019-01-16T13:45:45.305Z,95011.94
2019-01-16T13:48:33.453Z,95011.52
2019-01-16T13:51:21.712Z,95003.61
2019-01-16T13:54:10.129Z,95006.10
2019-01-16T13:56:50.922Z,95005.55
2019-01-16T13:59:29.367Z,95003.66
2019-01-16T14:02:17.717Z,94995.77
2019-01-16T14:05:05.859Z,94999.87
2019-01-16T14:07:54.058Z,94984.86
2019-01-16T14:10:42.466Z,94984.75
2019-01-16T14:13:30.609Z,94984.49
2019-01-16T14:16:19.079Z,94984.26
2019-01-16T14:19:07.216Z,94979.80
2019-01-16T14:21:55.691Z,94980.31
2019-01-16T14:24:43.826Z,94976.25
2019-01-16T14:27:32.636Z,94976.67
2019-01-16T14:30:20.777Z,94969.70
2019-01-16T14:33:08.890Z,94956.54
2019-01-16T14:35:44.543Z,94953.94
2019-01-16T14:38:32.783Z,94943.50
2019-01-16T14:41:21.184Z,94940.87
2019-01-16T14:44:09.322Z,94942.06
2019-01-16T14:50:06.089Z,94936.16
2019-01-16T14:52:54.214Z,94941.62
2019-01-16T14:55:42.362Z,94942.81
2019-01-16T14:58:30.581Z,94949.95
2019-01-16T15:01:18.720Z,94953.69
2019-01-16T15:04:06.859Z,94949.89
2019-01-16T15:06:55.271Z,94945.71
2019-01-16T15:09:43.404Z,94949.58
2019-01-16T15:12:31.638Z,94948.90
2019-01-16T15:15:20.072Z,94946.17
2019-01-16T15:17:58.714Z,94942.98
2019-01-16T15:20:46.825Z,94937.34
2019-01-16T15:23:34.966Z,94935.67
2019-01-16T15:29:31.735Z,94930.97
2019-01-16T15:32:08.918Z,94931.34
2019-01-16T15:34:57.423Z,94930.23
2019-01-16T15:37:37.387Z,94925.42
2019-01-16T15:40:27.962Z,94923.77
2019-01-16T15:43:16.064Z,94916.73
2019-01-16T15:46:04.473Z,94919.87
2019-01-16T15:48:52.580Z,94915.53
2019-01-16T15:51:40.870Z,94918.91
2019-01-16T15:54:29.246Z,94908.80
2019-01-16T15:57:17.659Z,94906.80
2019-01-16T16:00:05.763Z,94911.44
2019-01-16T16:02:52.540Z,94908.27
2019-01-16T16:05:40.642Z,94905.65
2019-01-16T16:08:29.133Z,94905.98
2019-01-16T16:11:17.311Z,94903.11
2019-01-16T16:14:05.483Z,94897.23
2019-01-16T16:16:53.598Z,94895.28
2019-01-16T16:19:41.736Z,94893.61
2019-01-16T16:22:29.876Z,94887.17
2019-01-16T16:25:18.031Z,94887.05
2019-01-16T16:28:06.141Z,94888.79
2019-01-16T16:30:54.603Z,94880.34
2019-01-16T16:33:42.743Z,94881.50
2019-01-16T16:36:32.120Z,94888.86
2019-01-16T16:39:20.563Z,94885.57
2019-01-16T16:42:09.063Z,94890.36
2019-01-16T16:44:57.226Z,94886.15
2019-01-16T16:47:45.404Z,94886.94
2019-01-16T16:50:33.626Z,94879.20
2019-01-16T16:53:21.791Z,94882.48
2019-01-16T16:56:09.970Z,94880.56
2019-01-16T16:58:58.119Z,94877.52
2019-01-16T17:01:46.227Z,94874.69
2019-01-16T17:04:25.737Z,94869.06
2019-01-16T17:07:13.860Z,94869.23
2019-01-16T17:10:02.062Z,94864.52
2019-01-16T17:12:50.263Z,94859.92
2019-01-16T17:15:38.017Z,94855.66
2019-01-16T17:18:26.308Z,94853.75
2019-01-16T17:21:14.540Z,94850.58
2019-01-16T17:24:02.764Z,94856.87
2019-01-16T17:26:50.931Z,94848.64
2019-01-16T17:29:39.039Z,94847.55
2019-01-16T17:32:27.208Z,94847.67
2019-01-16T17:35:15.338Z,94839.57
2019-01-16T17:38:03.478Z,94837.31
2019-01-16T17:40:51.709Z,94836.54
2019-01-16T17:43:39.837Z,94836.03
2019-01-16T17:46:27.955Z,94830.65
2019-01-16T17:49:16.130Z,94835.31
2019-01-16T17:52:04.267Z,94832.97
2019-01-16T17:54:52.449Z,94828.02
2019-01-16T17:57:40.618Z,94831.86
2019-01-16T18:00:30.265Z,94834.60
2019-01-16T18:03:18.462Z,94832.97
2019-01-16T18:06:06.633Z,94835.89
2019-01-16T18:08:55.021Z,94832.26
2019-01-16T18:11:43.183Z,94831.45
2019-01-16T18:14:31.565Z,94840.21
2019-01-16T18:17:19.766Z,94836.48
2019-01-16T18:20:07.875Z,94836.61
2019-01-16T18:22:47.802Z,94831.69
2019-01-16T18:25:35.932Z,94833.72
2019-01-16T18:28:24.176Z,94827.34
2019-01-16T18:31:12.306Z,94827.53
2019-01-16T18:33:54.725Z,94831.86
2019-01-16T18:36:42.961Z,94826.16
2019-01-16T18:39:28.272Z,94830.04
2019-01-16T18:42:16.458Z,94825.92
2019-01-16T18:45:04.560Z,94825.28
2019-01-16T18:47:53.038Z,94827.38
2019-01-16T18:50:33.445Z,94823.36
2019-01-16T18:53:21.587Z,94830.22
2019-01-16T18:56:10.052Z,94833.92
2019-01-16T18:58:58.325Z,94825.84
2019-01-16T19:01:46.571Z,94830.67
2019-01-16T19:04:35.634Z,94831.02
2019-01-16T19:10:18.628Z,94828.41
2019-01-16T19:13:07.657Z,94821.75
2019-01-16T19:15:55.829Z,94817.18
2019-01-16T19:18:43.965Z,94819.75
2019-01-16T19:21:20.726Z,94818.50
2019-01-16T19:24:08.857Z,94812.00
2019-01-16T19:26:56.991Z,94816.05
2019-01-16T19:29:45.129Z,94814.76
2019-01-16T19:32:33.254Z,94812.56
2019-01-16T19:35:09.378Z,94814.87
2019-01-16T19:37:57.561Z,94811.77
2019-01-16T19:40:45.739Z,94807.05
2019-01-16T19:43:33.977Z,94809.20
2019-01-16T19:46:17.217Z,94802.16
2019-01-16T19:49:05.385Z,94808.74
2019-01-16T19:51:45.405Z,94802.63
2019-01-16T19:54:33.539Z,94807.88
2019-01-16T19:57:21.643Z,94797.86
2019-01-16T20:00:09.787Z,94801.07
2019-01-16T20:02:58.211Z,94804.36
2019-01-16T20:05:46.718Z,94808.59
2019-01-16T20:08:53.920Z,94802.47
2019-01-16T20:11:42.050Z,94797.73
2019-01-16T20:14:32.041Z,94798.57
2019-01-16T20:17:20.198Z,94801.14
2019-01-16T20:20:08.291Z,94797.78
2019-01-16T20:22:56.438Z,94799.29
2019-01-16T20:25:45.013Z,94799.33
2019-01-16T20:28:33.141Z,94798.50
2019-01-16T20:31:21.981Z,94794.27
2019-01-16T20:34:10.106Z,94793.20
2019-01-16T20:36:58.242Z,94795.39
2019-01-16T20:39:46.360Z,94793.77
2019-01-16T20:42:34.490Z,94792.48
2019-01-16T20:48:31.168Z,94785.34
2019-01-16T20:51:19.597Z,94784.95
2019-01-16T20:54:07.736Z,94789.45
2019-01-16T20:56:49.822Z,94781.74
2019-01-16T20:59:37.970Z,94781.18
2019-01-16T21:02:26.119Z,94777.55
2019-01-16T21:05:14.227Z,94777.55
2019-01-16T21:08:02.646Z,94776.91
2019-01-16T21:10:50.757Z,94772.67
2019-01-16T21:13:38.878Z,94780.54
2019-01-16T21:16:26.991Z,94776.64
2019-01-16T21:19:15.122Z,94772.41
2019-01-16T21:22:03.227Z,94776.27
2019-01-16T21:24:51.630Z,94775.85
2019-01-16T21:27:39.763Z,94771.55
2019-01-16T21:30:30.522Z,94764.36
2019-01-16T21:33:18.626Z,94767.69
2019-01-16T21:35:59.127Z,94762.88
2019-01-16T21:38:47.808Z,94759.22
2019-01-16T21:41:31.528Z,94758.84
2019-01-16T21:44:19.639Z,94763.80
2019-01-16T21:47:07.891Z,94754.23
2019-01-16T21:49:56.014Z,94754.23
2019-01-16T21:52:44.571Z,94746.89
2019-01-16T21:55:32.792Z,94737.52
2019-01-16T21:58:11.364Z,94736.35
2019-01-16T22:00:59.486Z,94741.34
2019-01-16T22:03:47.926Z,94737.48
2019-01-16T22:06:36.036Z,94740.05
2019-01-16T22:09:44.638Z,94738.96
2019-01-16T22:12:33.382Z,94737.98
2019-01-16T22:15:16.669Z,94734.05
2019-01-16T22:17:56.959Z,94733.63
2019-01-16T22:20:45.112Z,94733.31
2019-01-16T22:23:36.664Z,94734.34
2019-01-16T22:29:31.707Z,94725.80
2019-01-16T22:32:19.870Z,94730.12
2019-01-16T22:35:08.331Z,94716.87
2019-01-16T22:37:45.890Z,94728.74
2019-01-16T22:40:34.117Z,94728.22
2019-01-16T22:43:22.236Z,94711.82
2019-01-16T22:46:10.642Z,94711.05
2019-01-16T22:49:17.840Z,94711.97
2019-01-16T22:52:06.004Z,94704.94
2019-01-16T22:54:54.501Z,94704.06
2019-01-16T22:57:42.607Z,94702.66
2019-01-16T23:00:54.827Z,94703.30
2019-01-16T23:03:42.941Z,94703.03
2019-01-16T23:06:31.070Z,94700.76
2019-01-16T23:09:19.180Z,94696.69
2019-01-16T23:12:07.590Z,94696.66
2019-01-16T23:14:55.719Z,94690.28
2019-01-16T23:17:43.977Z,94691.45
2019-01-16T23:20:32.194Z,94689.22
2019-01-16T23:23:20.322Z,94684.11
2019-01-16T23:26:08.724Z,94685.59
2019-01-16T23:28:56.855Z,94678.05
2019-01-16T23:31:44.985Z,94678.56
2019-01-16T23:34:33.131Z,94679.85
2019-01-16T23:37:11.314Z,94675.54
2019-01-16T23:39:59.423Z,94671.31
2019-01-16T23:42:47.565Z,94670.70
2019-01-16T23:45:35.671Z,94668.14
2019-01-16T23:48:21.268Z,94662.85
2019-01-16T23:51:09.384Z,94665.20
2019-01-16T23:53:57.528Z,94654.91
2019-01-16T23:56:45.641Z,94662.62
2019-01-16T23:59:34.052Z,94651.44
